Time;durP1;ratioP1;P1;durP2;ratioP2;P2;SDS_P1;SDS_P2;PMS_P1;PMS_P2;Temp;Humidity;BMP_temperature;BMP_pressure;BME280_temperature;BME280_humidity;BME280_pressure;Samples;Min_cycle;Max_cycle;Signal;HPM_P1;HPM_P2
2021/10/22 00:00:06;;;;;;;4.62;1.35;;;;;;;7.94;66.05;99371.13;1668060;85;21091;-80
2021/10/22 00:02:35;;;;;;;4.42;1.22;;;;;;;7.96;66.04;99372.02;1668045;84;21380;-80
2021/10/22 00:05:02;;;;;;;7.28;1.57;;;;;;;7.94;65.92;99385.53;1667981;84;21676;-80
2021/10/22 00:07:29;;;;;;;3.35;1.30;;;;;;;7.92;65.78;99395.12;1668260;84;21098;-80
2021/10/22 00:09:57;;;;;;;6.47;1.12;;;;;;;7.90;65.84;99397.23;1668242;85;21762;-80
2021/10/22 00:12:23;;;;;;;7.30;1.98;;;;;;;7.88;65.96;99398.56;1668187;85;21087;-80
2021/10/22 00:14:50;;;;;;;5.62;1.22;;;;;;;7.94;66.03;99404.31;1668115;84;21184;-80
2021/10/22 00:17:17;;;;;;;3.87;1.02;;;;;;;8.01;65.93;99410.50;1668115;85;21566;-80
2021/10/22 00:19:45;;;;;;;5.00;1.40;;;;;;;8.06;65.87;99408.83;1648117;86;21130;-80
2021/10/22 00:22:13;;;;;;;3.90;1.15;;;;;;;8.10;65.85;99414.56;1668061;84;21815;-80
2021/10/22 00:24:41;;;;;;;6.00;2.45;;;;;;;8.16;65.87;99414.63;1667980;84;21058;-80
2021/10/22 00:27:07;;;;;;;7.37;1.60;;;;;;;8.24;65.88;99430.05;1668092;84;21569;-80
2021/10/22 00:29:34;;;;;;;5.40;1.25;;;;;;;8.30;65.85;99437.11;1668104;84;21079;-80
2021/10/22 00:32:01;;;;;;;12.50;1.57;;;;;;;8.38;65.82;99483.97;1668179;84;21565;-80
2021/10/22 00:34:28;;;;;;;4.70;1.00;;;;;;;8.38;65.76;99505.81;1668104;84;22590;-80
2021/10/22 00:36:55;;;;;;;3.50;0.70;;;;;;;8.14;65.81;99526.00;1667914;84;21103;-80
2021/10/22 00:39:22;;;;;;;2.80;0.82;;;;;;;7.65;66.45;99547.48;1668145;84;21076;-80
2021/10/22 00:41:49;;;;;;;2.65;0.78;;;;;;;7.24;67.00;99537.57;1668094;84;21039;-80
2021/10/22 00:44:16;;;;;;;3.87;0.72;;;;;;;6.94;67.67;99545.27;1668323;84;21102;-80
2021/10/22 00:46:43;;;;;;;2.55;0.72;;;;;;;6.76;68.17;99554.95;1668271;84;21930;-80
2021/10/22 00:49:11;;;;;;;2.30;0.70;;;;;;;6.66;68.73;99563.00;1668176;85;21086;-80
2021/10/22 00:51:42;;;;;;;1.75;0.60;;;;;;;6.56;69.12;99566.28;1668350;84;21094;-81
2021/10/22 00:54:10;;;;;;;5.30;0.80;;;;;;;6.42;69.28;99543.33;1667804;84;21652;-81
2021/10/22 00:56:37;;;;;;;2.70;0.88;;;;;;;6.31;69.53;99543.95;1668496;86;21070;-80
2021/10/22 00:59:07;;;;;;;2.33;0.90;;;;;;;6.25;69.68;99550.32;1649405;86;22634;-80
2021/10/22 01:01:39;;;;;;;3.62;0.98;;;;;;;6.21;70.12;99538.52;1668548;84;21028;-80
2021/10/22 01:04:07;;;;;;;1.85;0.65;;;;;;;6.20;70.26;99526.28;1668514;84;21083;-80
2021/10/22 01:06:41;;;;;;;4.03;1.00;;;;;;;6.13;70.29;99536.55;1668162;84;21053;-80
2021/10/22 01:09:10;;;;;;;1.95;0.78;;;;;;;6.04;70.48;99541.13;1648775;86;21588;-80
2021/10/22 01:11:38;;;;;;;4.35;0.80;;;;;;;5.98;70.69;99527.50;1668374;86;22352;-80
2021/10/22 01:14:11;;;;;;;4.85;0.95;;;;;;;5.91;70.82;99539.95;1668180;86;21123;-80
2021/10/22 01:16:37;;;;;;;2.25;0.70;;;;;;;5.90;71.26;99548.61;1667769;85;21122;-80
2021/10/22 01:19:04;;;;;;;1.42;0.68;;;;;;;5.93;71.51;99538.25;1668056;84;21086;-81
2021/10/22 01:21:33;;;;;;;2.50;0.70;;;;;;;5.96;71.61;99534.42;1668467;85;21135;-80
2021/10/22 01:24:00;;;;;;;1.70;0.53;;;;;;;5.93;71.54;99533.03;1668366;84;21795;-80
2021/10/22 01:26:33;;;;;;;4.85;0.65;;;;;;;5.88;71.74;99531.16;1667263;85;21676;-80
2021/10/22 01:28:59;;;;;;;3.50;1.00;;;;;;;5.83;71.84;99532.33;1667920;84;21079;-80
2021/10/22 01:31:26;;;;;;;5.33;1.17;;;;;;;5.80;72.14;99544.90;1668181;85;21138;-80
2021/10/22 01:33:55;;;;;;;6.62;1.10;;;;;;;5.80;72.37;99548.81;1668321;85;21150;-80
2021/10/22 01:36:23;;;;;;;5.03;1.20;;;;;;;5.82;72.69;99548.86;1668300;84;21765;-81
2021/10/22 01:38:50;;;;;;;5.15;1.10;;;;;;;5.90;73.03;99548.61;1668227;86;21020;-80
2021/10/22 01:41:18;;;;;;;7.58;1.60;;;;;;;6.02;73.28;99544.13;1667615;84;21092;-80
2021/10/22 01:43:46;;;;;;;5.03;1.17;;;;;;;6.15;73.49;99544.00;1668264;86;21098;-80
2021/10/22 01:46:13;;;;;;;6.08;1.57;;;;;;;6.29;73.69;99543.00;1668215;84;21095;-80
2021/10/22 01:48:40;;;;;;;7.25;1.40;;;;;;;6.45;73.76;99545.55;1668218;85;21813;-80
2021/10/22 01:51:07;;;;;;;3.62;1.32;;;;;;;6.58;73.65;99550.20;1668145;85;21114;-79
2021/10/22 01:53:34;;;;;;;7.78;1.65;;;;;;;6.71;73.58;99550.91;1668224;84;21059;-79
2021/10/22 01:56:01;;;;;;;6.45;1.45;;;;;;;6.84;73.45;99555.11;1668146;84;21075;-80
2021/10/22 01:58:28;;;;;;;9.25;1.52;;;;;;;6.94;73.35;99551.37;1648819;85;21103;-80
2021/10/22 02:00:55;;;;;;;8.30;1.40;;;;;;;7.04;73.20;99556.40;1668131;84;21795;-80
2021/10/22 02:03:21;;;;;;;5.42;1.70;;;;;;;7.08;72.83;99554.30;1668125;84;21071;-80
2021/10/22 02:05:48;;;;;;;4.28;1.35;;;;;;;7.03;72.54;99562.47;1664273;84;21154;-80
2021/10/22 02:08:15;;;;;;;7.87;1.30;;;;;;;6.98;72.53;99563.70;1638300;86;21098;-80
2021/10/22 02:10:42;;;;;;;4.72;1.30;;;;;;;7.00;72.69;99574.17;1638359;87;21197;-80
2021/10/22 02:13:09;;;;;;;6.87;1.45;;;;;;;7.04;72.60;99559.02;1647905;85;21903;-81
2021/10/22 02:15:36;;;;;;;6.53;2.10;;;;;;;7.08;72.87;99558.66;1638425;87;21529;-80
2021/10/22 02:18:04;;;;;;;5.78;1.35;;;;;;;7.13;72.98;99544.81;1638440;87;21047;-81
2021/10/22 02:20:31;;;;;;;8.10;1.80;;;;;;;7.16;72.89;99545.28;1648012;87;21095;-80
2021/10/22 02:22:59;;;;;;;8.93;1.90;;;;;;;7.19;72.99;99553.20;1637794;86;21631;-80
2021/10/22 02:25:26;;;;;;;7.10;1.65;;;;;;;7.24;73.11;99551.53;1610608;87;21924;-80
2021/10/22 02:27:53;;;;;;;7.30;1.87;;;;;;;7.30;72.93;99554.29;1638338;87;21078;-80
2021/10/22 02:30:25;;;;;;;5.85;1.75;;;;;;;7.36;72.93;99566.17;1647694;87;21090;-80
2021/10/22 02:32:49;;;;;;;6.97;1.37;;;;;;;7.40;72.87;99565.38;1637618;86;21133;-80
2021/10/22 02:35:16;;;;;;;7.35;1.70;;;;;;;7.44;72.68;99571.55;1638351;87;21068;-80
2021/10/22 02:37:45;;;;;;;8.98;1.65;;;;;;;7.47;72.52;99568.09;1647899;85;22404;-80
2021/10/22 02:40:14;;;;;;;6.33;1.62;;;;;;;7.52;72.43;99575.18;1637581;87;21364;-80
2021/10/22 02:42:44;;;;;;;7.40;1.80;;;;;;;7.53;72.20;99569.11;1638297;87;21109;-80
2021/10/22 02:45:09;;;;;;;10.15;1.90;;;;;;;7.45;72.03;99581.59;1647348;85;21542;-80
2021/10/22 02:47:36;;;;;;;7.55;1.37;;;;;;;7.36;72.05;99592.35;1638161;87;21564;-80
2021/10/22 02:50:04;;;;;;;8.23;1.72;;;;;;;7.36;72.20;99601.52;1638122;87;21698;-80
2021/10/22 02:52:32;;;;;;;10.38;2.00;;;;;;;7.39;72.39;99591.52;1646949;87;21055;-80
2021/10/22 02:54:59;;;;;;;9.55;1.62;;;;;;;7.43;72.40;99596.39;1638309;87;21576;-80
2021/10/22 02:57:26;;;;;;;5.55;1.87;;;;;;;7.45;72.45;99597.30;1638298;87;21125;-80
2021/10/22 02:59:58;;;;;;;5.50;1.50;;;;;;;7.48;72.46;99608.71;1626985;86;21149;-80
2021/10/22 03:02:23;;;;;;;9.25;1.60;;;;;;;7.50;72.43;99608.75;1638227;85;21795;-80
2021/10/22 03:04:50;;;;;;;9.18;1.65;;;;;;;7.50;72.48;99601.77;1638022;87;21106;-80
2021/10/22 03:07:17;;;;;;;7.17;1.60;;;;;;;7.47;72.42;99609.98;1659689;83;21120;-80
2021/10/22 03:09:48;;;;;;;8.48;1.57;;;;;;;7.44;72.47;99606.02;1666137;84;21212;-81
2021/10/22 03:12:12;;;;;;;6.78;1.52;;;;;;;7.43;72.57;99603.80;1665436;84;21134;-80
2021/10/22 03:14:39;;;;;;;6.40;1.40;;;;;;;7.37;72.47;99607.63;1666455;84;22662;-81
2021/10/22 03:17:08;;;;;;;4.87;1.50;;;;;;;7.31;72.52;99609.70;1665707;84;21075;-81
2021/10/22 03:19:35;;;;;;;10.58;1.95;;;;;;;7.26;72.51;99611.77;1666464;85;21083;-81
2021/10/22 03:22:01;;;;;;;9.40;1.85;;;;;;;7.20;72.49;99616.45;1666331;84;21024;-81
2021/10/22 03:24:28;;;;;;;7.55;1.62;;;;;;;7.11;72.52;99616.26;1666487;84;21063;-80
2021/10/22 03:26:55;;;;;;;5.92;1.50;;;;;;;7.01;72.49;99623.04;1666609;84;21764;-81
2021/10/22 03:29:22;;;;;;;8.58;2.12;;;;;;;6.96;72.44;99617.73;1666285;84;21329;-80
2021/10/22 03:31:48;;;;;;;6.08;1.90;;;;;;;6.90;72.46;99631.09;1666242;84;21070;-80
2021/10/22 03:34:15;;;;;;;8.03;1.50;;;;;;;6.85;72.51;99632.70;1666250;84;21098;-80
2021/10/22 03:36:42;;;;;;;5.65;1.65;;;;;;;6.79;72.55;99628.23;1666436;85;21091;-80
2021/10/22 03:39:09;;;;;;;5.03;1.62;;;;;;;6.75;72.73;99633.81;1666214;84;22603;-80
2021/10/22 03:41:36;;;;;;;6.90;1.45;;;;;;;6.75;72.80;99638.17;1666272;84;21071;-81
2021/10/22 03:44:05;;;;;;;9.70;1.90;;;;;;;6.71;72.86;99654.64;1665950;84;21067;-81
2021/10/22 03:46:32;;;;;;;7.85;1.92;;;;;;;6.69;73.15;99655.91;1667950;84;21101;-80
2021/10/22 03:48:59;;;;;;;8.03;1.72;;;;;;;6.74;73.45;99663.45;1620143;87;21655;-80
2021/10/22 03:51:26;;;;;;;7.97;1.67;;;;;;;6.84;73.52;99661.92;1646358;87;21827;-80
2021/10/22 03:53:53;;;;;;;5.70;1.80;;;;;;;6.90;73.52;99664.66;1646219;86;21083;-80
2021/10/22 03:56:20;;;;;;;11.97;1.98;;;;;;;6.93;73.45;99659.50;1643024;86;21056;-82
2021/10/22 03:58:49;;;;;;;6.42;1.85;;;;;;;6.96;73.38;99671.76;1619878;86;21056;-80
2021/10/22 04:01:18;;;;;;;9.65;1.98;;;;;;;6.94;73.38;99664.30;1594947;88;21095;-80
2021/10/22 04:03:45;;;;;;;9.35;1.82;;;;;;;6.94;73.45;99664.30;1615172;88;21793;-80
2021/10/22 04:06:12;;;;;;;9.08;1.87;;;;;;;6.96;73.56;99671.36;1613530;87;21060;-78
2021/10/22 04:08:39;;;;;;;7.10;2.27;;;;;;;7.01;73.62;99666.21;1595111;89;21088;-81
2021/10/22 04:11:06;;;;;;;6.80;1.90;;;;;;;7.09;73.64;99661.14;1594897;89;21127;-82
2021/10/22 04:13:35;;;;;;;9.23;1.62;;;;;;;7.12;73.33;99657.30;1602560;88;21111;-83
2021/10/22 04:16:01;;;;;;;6.10;1.40;;;;;;;7.15;73.22;99659.95;1620148;88;22641;-80
2021/10/22 04:18:28;;;;;;;10.15;2.00;;;;;;;7.16;73.06;99661.73;1619606;88;21087;-79
2021/10/22 04:20:58;;;;;;;14.90;2.25;;;;;;;7.16;72.89;99661.73;1620171;88;21107;-80
2021/10/22 04:23:24;;;;;;;11.05;2.75;;;;;;;7.15;72.80;99662.57;1615393;88;21565;-79
2021/10/22 04:25:52;;;;;;;11.70;2.40;;;;;;;7.12;72.68;99658.17;1618250;88;21067;-79
2021/10/22 04:28:19;;;;;;;13.62;2.65;;;;;;;7.09;72.54;99661.14;1618075;88;21789;-80
2021/10/22 04:30:45;;;;;;;9.80;2.40;;;;;;;7.04;72.37;99666.69;1618511;88;21141;-80
2021/10/22 04:33:14;;;;;;;6.65;2.40;;;;;;;6.98;72.35;99667.04;1596474;88;21068;-80
2021/10/22 04:35:45;;;;;;;9.98;2.20;;;;;;;6.96;72.34;99672.67;1617963;88;21106;-80
2021/10/22 04:40:54;;;;;;;6.75;1.92;;;;;;;6.98;72.36;99678.81;1618064;88;21938;-78
2021/10/22 04:43:21;;;;;;;5.20;1.92;;;;;;;7.04;72.37;99684.61;1618162;88;21103;-85
2021/10/22 04:45:52;;;;;;;10.58;1.85;;;;;;;7.08;72.31;99685.56;1598520;88;21118;-84
2021/10/22 04:48:22;;;;;;;7.87;2.02;;;;;;;7.12;72.28;99682.16;1620538;88;21217;-82
2021/10/22 04:50:51;;;;;;;7.72;1.82;;;;;;;7.17;72.24;99691.88;1621574;87;21114;-80
2021/10/22 04:53:22;;;;;;;12.25;2.45;;;;;;;7.23;72.06;99686.32;1622115;88;22458;-81
2021/10/22 04:55:47;;;;;;;10.23;2.22;;;;;;;7.25;71.89;99682.88;1638176;86;21881;-81
2021/10/22 04:58:14;;;;;;;8.18;2.25;;;;;;;7.28;71.81;99697.75;1638290;87;21106;-80
2021/10/22 05:00:41;;;;;;;11.40;1.92;;;;;;;7.27;71.70;99691.64;1623557;87;21034;-81
2021/10/22 05:03:13;;;;;;;8.00;2.50;;;;;;;7.30;71.82;99696.95;1623580;88;21183;-85
2021/10/22 05:05:40;;;;;;;9.48;2.00;;;;;;;7.36;71.79;99702.30;1621548;86;23303;-80
2021/10/22 05:08:07;;;;;;;12.60;1.95;;;;;;;7.43;71.75;99690.20;1644360;85;21049;-80
2021/10/22 05:10:33;;;;;;;4.85;1.60;;;;;;;7.46;71.49;99696.83;1655654;85;21101;-81
2021/10/22 05:13:00;;;;;;;9.95;1.77;;;;;;;7.49;71.45;99706.06;1657114;85;21092;-80
2021/10/22 05:15:27;;;;;;;5.83;1.80;;;;;;;7.52;71.17;99703.92;1652910;85;21563;-80
2021/10/22 05:17:54;;;;;;;9.93;2.10;;;;;;;7.57;71.22;99698.36;1657291;85;21757;-80
2021/10/22 05:20:21;;;;;;;14.87;2.22;;;;;;;7.59;71.14;99707.12;1656746;85;21100;-80
2021/10/22 05:22:48;;;;;;;9.85;2.30;;;;;;;7.65;71.05;99705.06;1652593;85;21156;-80
2021/10/22 05:25:17;;;;;;;10.80;2.05;;;;;;;7.67;71.01;99701.61;1654785;85;21761;-80
2021/10/22 05:27:43;;;;;;;9.13;2.10;;;;;;;7.70;70.85;99711.28;1657145;85;21050;-80
2021/10/22 05:30:10;;;;;;;11.88;2.40;;;;;;;7.73;70.81;99716.16;1656755;85;21711;-80
2021/10/22 05:32:37;;;;;;;9.90;2.27;;;;;;;7.75;70.72;99712.23;1657096;85;21047;-80
2021/10/22 05:35:07;;;;;;;11.48;2.50;;;;;;;7.77;70.58;99714.05;1652614;85;21025;-80
2021/10/22 05:37:33;;;;;;;13.22;2.67;;;;;;;7.77;70.43;99720.60;1628134;86;21085;-80
2021/10/22 05:40:01;;;;;;;5.78;1.98;;;;;;;7.79;70.39;99720.64;1656736;85;21073;-80
2021/10/22 05:42:28;;;;;;;7.87;2.17;;;;;;;7.81;70.36;99728.09;1652492;85;21708;-80
2021/10/22 05:44:55;;;;;;;10.80;2.30;;;;;;;7.79;70.27;99725.88;1601401;88;21500;-80
2021/10/22 05:47:22;;;;;;;9.15;2.20;;;;;;;7.77;70.07;99727.55;1657121;85;21747;-80
2021/10/22 05:49:50;;;;;;;12.25;2.20;;;;;;;7.74;69.98;99722.27;1644438;85;21097;-80
2021/10/22 05:52:19;;;;;;;11.63;2.75;;;;;;;7.65;69.86;99731.25;1620120;86;21598;-80
2021/10/22 05:54:45;;;;;;;13.58;2.05;;;;;;;7.58;69.79;99739.39;1653079;85;21770;-80
2021/10/22 05:57:12;;;;;;;14.70;2.50;;;;;;;7.50;69.79;99729.20;1655370;85;21083;-80
2021/10/22 05:59:39;;;;;;;7.22;2.12;;;;;;;7.45;69.90;99735.66;1657436;85;21041;-80
2021/10/22 06:02:06;;;;;;;10.75;4.65;;;;;;;7.46;69.98;99747.02;1652790;86;21595;-80
2021/10/22 06:04:33;;;;;;;9.45;2.30;;;;;;;7.47;70.01;99744.43;1655544;85;21707;-80
2021/10/22 06:07:00;;;;;;;6.22;2.25;;;;;;;7.50;70.06;99740.98;1657969;85;21848;-80
2021/10/22 06:09:27;;;;;;;9.85;2.35;;;;;;;7.53;70.03;99752.84;1663557;85;21129;-80
2021/10/22 06:11:54;;;;;;;9.08;2.25;;;;;;;7.56;69.99;99749.86;1663841;85;21544;-80
2021/10/22 06:14:21;;;;;;;12.23;2.47;;;;;;;7.60;70.00;99754.71;1663688;84;21548;-80
2021/10/22 06:16:48;;;;;;;9.38;2.45;;;;;;;7.63;69.96;99754.78;1663884;85;21106;-80
2021/10/22 06:19:22;;;;;;;13.60;2.70;;;;;;;7.65;69.87;99760.94;1663316;84;21059;-81
2021/10/22 06:24:11;;;;;;;11.48;2.47;;;;;;;7.65;69.74;99771.41;1663846;85;21105;-80
2021/10/22 06:26:41;;;;;;;10.20;2.08;;;;;;;7.65;69.63;99766.61;1663992;84;21212;-80
2021/10/22 06:29:11;;;;;;;14.05;2.80;;;;;;;7.63;69.67;99776.17;1663671;84;21117;-80
2021/10/22 06:31:38;;;;;;;12.93;2.50;;;;;;;7.65;69.69;99781.89;1663924;84;21843;-81
2021/10/22 06:34:05;;;;;;;10.60;2.10;;;;;;;7.69;69.75;99789.39;1663818;85;21054;-80
2021/10/22 06:36:32;;;;;;;6.70;2.08;;;;;;;7.75;69.73;99785.17;1663781;84;21019;-80
2021/10/22 06:38:59;;;;;;;7.95;2.08;;;;;;;7.84;69.75;99780.53;1663869;84;21068;-81
2021/10/22 06:41:26;;;;;;;9.38;2.22;;;;;;;7.95;69.75;99775.08;1663859;85;21142;-80
2021/10/22 06:43:53;;;;;;;6.70;2.22;;;;;;;8.07;69.75;99774.46;1663862;84;22605;-80
2021/10/22 06:46:20;;;;;;;9.63;2.40;;;;;;;8.17;69.63;99776.83;1663713;84;21073;-80
2021/10/22 06:48:47;;;;;;;12.25;3.02;;;;;;;8.28;69.45;99767.42;1663785;84;21150;-79
2021/10/22 06:51:16;;;;;;;9.53;2.12;;;;;;;8.36;69.26;99781.98;1663788;85;21560;-80
2021/10/22 06:53:43;;;;;;;8.68;1.87;;;;;;;8.38;69.20;99777.20;1663996;86;21015;-80
2021/10/22 06:56:10;;;;;;;7.47;1.92;;;;;;;8.42;69.16;99779.93;1663720;85;21749;-80
2021/10/22 06:58:36;;;;;;;10.05;2.20;;;;;;;8.48;69.10;99786.59;1663719;85;21062;-80
2021/10/22 07:01:04;;;;;;;6.00;1.67;;;;;;;8.59;69.09;99792.03;1663806;84;21051;-80
2021/10/22 07:03:38;;;;;;;6.40;2.02;;;;;;;8.68;69.02;99794.38;1663710;85;21216;-80
2021/10/22 07:08:26;;;;;;;8.05;1.92;;;;;;;8.86;68.75;99799.07;1663608;84;21754;-80
2021/10/22 07:10:53;;;;;;;10.82;2.45;;;;;;;8.91;68.52;99803.94;1663688;85;21046;-80
2021/10/22 07:13:23;;;;;;;6.55;1.92;;;;;;;8.93;68.44;99803.56;1663669;86;21169;-80
2021/10/22 07:15:52;;;;;;;7.85;2.67;;;;;;;9.08;68.50;99795.02;1663527;85;21512;-80
2021/10/22 07:18:18;;;;;;;7.25;2.10;;;;;;;9.16;68.31;99801.73;1663829;84;21036;-80
2021/10/22 07:20:45;;;;;;;7.35;1.90;;;;;;;9.18;68.16;99805.67;1663878;85;21713;-80
2021/10/22 07:23:12;;;;;;;8.63;2.22;;;;;;;9.23;68.07;99815.82;1663749;84;21125;-80
2021/10/22 07:25:40;;;;;;;5.37;1.92;;;;;;;9.15;67.76;99813.95;1663872;85;21058;-80
2021/10/22 07:28:13;;;;;;;9.93;2.33;;;;;;;9.17;67.80;99820.98;1663783;85;21071;-81
2021/10/22 07:30:41;;;;;;;9.23;2.12;;;;;;;9.28;67.95;99821.59;1663889;84;22636;-80
2021/10/22 07:33:07;;;;;;;7.75;2.00;;;;;;;9.44;67.73;99812.22;1664164;84;23673;-81
2021/10/22 07:35:37;;;;;;;7.10;1.70;;;;;;;9.56;67.57;99815.44;1664144;85;21125;-81
2021/10/22 07:38:02;;;;;;;5.22;1.90;;;;;;;9.63;67.28;99826.91;1664024;85;21093;-81
2021/10/22 07:40:29;;;;;;;6.67;1.95;;;;;;;9.63;67.04;99816.39;1664118;85;21097;-81
2021/10/22 07:42:56;;;;;;;9.38;2.30;;;;;;;9.69;66.99;99816.06;1664187;85;21575;-81
2021/10/22 07:45:23;;;;;;;7.40;2.22;;;;;;;9.73;66.88;99811.29;1664150;85;21759;-81
2021/10/22 07:47:49;;;;;;;8.48;2.67;;;;;;;9.69;66.58;99824.38;1663878;84;21074;-82
2021/10/22 07:50:18;;;;;;;7.85;2.05;;;;;;;9.56;66.42;99818.07;1663822;84;21074;-81
2021/10/22 07:52:45;;;;;;;7.87;2.15;;;;;;;9.52;66.54;99822.84;1664143;85;21563;-82
2021/10/22 07:55:12;;;;;;;7.42;2.35;;;;;;;9.51;66.49;99803.54;1663980;84;21113;-82
2021/10/22 07:57:39;;;;;;;7.92;1.87;;;;;;;9.42;66.27;99809.09;1664029;84;21901;-82
2021/10/22 08:00:07;;;;;;;7.35;2.37;;;;;;;9.31;66.27;99819.03;1663750;85;21148;-81
2021/10/22 08:02:33;;;;;;;5.47;2.25;;;;;;;9.23;66.26;99810.58;1663942;85;21011;-81
2021/10/22 08:05:00;;;;;;;5.45;2.90;;;;;;;9.18;66.35;99823.64;1663861;84;21340;-81
2021/10/22 08:07:29;;;;;;;8.38;2.20;;;;;;;9.19;66.38;99824.52;1663835;84;21134;-81
2021/10/22 08:09:56;;;;;;;8.68;3.90;;;;;;;9.17;66.34;99824.92;1663570;84;21805;-81
2021/10/22 08:12:23;;;;;;;11.33;3.95;;;;;;;9.10;66.27;99822.22;1663504;84;21145;-81
2021/10/22 08:14:49;;;;;;;10.40;5.47;;;;;;;9.03;66.29;99821.66;1664017;85;21077;-81
2021/10/22 08:17:17;;;;;;;14.18;6.85;;;;;;;9.00;66.47;99829.91;1663842;84;21086;-81
2021/10/22 08:19:50;;;;;;;19.35;13.93;;;;;;;9.04;66.64;99823.41;1663997;85;21117;-81
2021/10/22 08:22:31;;;;;;;14.33;8.35;;;;;;;9.07;66.62;99827.41;1663232;84;21732;-81
2021/10/22 08:25:07;;;;;;;10.05;4.80;;;;;;;9.08;66.50;99826.52;1663833;84;21070;-81
2021/10/22 08:27:40;;;;;;;9.78;3.58;;;;;;;9.12;66.50;99821.80;1663928;85;21074;-81
2021/10/22 08:30:10;;;;;;;6.63;2.80;;;;;;;9.21;66.59;99823.67;1663591;84;21109;-81
2021/10/22 08:32:38;;;;;;;8.55;2.75;;;;;;;9.36;66.54;99827.41;1663909;84;21343;-81
2021/10/22 08:35:05;;;;;;;7.72;2.20;;;;;;;9.48;66.54;99832.41;1663494;85;21740;-81
2021/10/22 08:37:32;;;;;;;11.03;2.60;;;;;;;9.62;66.41;99823.84;1663740;85;21091;-81
2021/10/22 08:39:59;;;;;;;8.85;2.80;;;;;;;9.71;66.12;99811.70;1663908;85;21098;-81
2021/10/22 08:42:25;;;;;;;8.63;2.67;;;;;;;9.77;65.99;99818.79;1663790;84;21106;-81
2021/10/22 08:44:53;;;;;;;11.03;2.70;;;;;;;9.80;65.98;99817.53;1663994;85;21094;-81
2021/10/22 08:47:28;;;;;;;8.83;2.58;;;;;;;9.87;65.91;99804.02;1663872;84;22542;-81
2021/10/22 08:49:59;;;;;;;8.45;2.92;;;;;;;9.95;65.81;99800.16;1663719;84;21142;-81
2021/10/22 08:52:27;;;;;;;9.93;2.83;;;;;;;9.92;65.60;99797.95;1663657;84;21148;-81
2021/10/22 08:54:55;;;;;;;7.33;2.65;;;;;;;10.01;65.63;99800.26;1663910;85;21620;-81
2021/10/22 08:57:22;;;;;;;8.28;2.72;;;;;;;10.11;65.42;99785.02;1664051;84;21082;-80
2021/10/22 08:59:48;;;;;;;18.62;9.03;;;;;;;10.20;65.28;99777.23;1663767;85;21762;-80
2021/10/22 09:02:22;;;;;;;40.00;22.17;;;;;;;10.26;65.16;99783.00;1663826;84;21584;-80
2021/10/22 09:04:49;;;;;;;61.30;38.63;;;;;;;10.31;65.04;99787.92;1663923;85;25394;-80
2021/10/22 09:07:21;;;;;;;51.00;27.70;;;;;;;10.44;65.12;99779.72;1663862;85;21723;-80
2021/10/22 09:10:10;;;;;;;63.78;35.78;;;;;;;10.55;65.05;99782.02;1663525;84;21269;-80
2021/10/22 09:12:50;;;;;;;31.55;17.65;;;;;;;10.64;64.84;99779.89;1663687;85;21744;-80
2021/10/22 09:15:32;;;;;;;14.65;7.83;;;;;;;10.64;64.45;99782.11;1662488;85;21090;-80
2021/10/22 09:18:04;;;;;;;10.50;3.83;;;;;;;10.72;64.37;99774.69;1663757;85;22431;-80
2021/10/22 09:20:29;;;;;;;8.90;2.85;;;;;;;10.76;64.28;99778.70;1663858;85;21094;-80
2021/10/22 09:22:58;;;;;;;5.55;2.77;;;;;;;10.86;64.34;99787.55;1664119;84;21142;-80
2021/10/22 09:25:29;;;;;;;8.08;2.15;;;;;;;10.98;64.24;99779.77;1663921;85;21718;-80
2021/10/22 09:27:58;;;;;;;6.25;2.22;;;;;;;11.03;64.03;99779.78;1664011;84;21015;-80
2021/10/22 09:30:38;;;;;;;9.35;2.55;;;;;;;11.09;63.95;99771.92;1663834;84;21102;-80
2021/10/22 09:33:15;;;;;;;6.55;1.75;;;;;;;11.13;63.86;99776.78;1663852;85;21683;-80
2021/10/22 09:35:47;;;;;;;8.60;2.45;;;;;;;11.18;63.73;99769.80;1663887;84;21075;-80
2021/10/22 09:38:23;;;;;;;8.75;2.17;;;;;;;11.16;63.47;99776.36;1663730;84;21778;-80
2021/10/22 09:41:07;;;;;;;11.25;2.62;;;;;;;11.16;63.55;99759.69;1663476;85;21568;-80
2021/10/22 09:43:41;;;;;;;14.77;7.17;;;;;;;11.17;63.29;99747.85;1662526;85;21086;-80
2021/10/22 09:46:17;;;;;;;7.97;5.17;;;;;;;11.13;63.05;99755.70;1663731;84;21194;-80
2021/10/22 09:48:51;;;;;;;27.70;13.68;;;;;;;11.14;63.09;99751.77;1644865;85;21063;-80
2021/10/22 09:51:33;;;;;;;7.17;3.17;;;;;;;11.11;62.93;99755.69;1663947;84;22361;-80
2021/10/22 09:54:11;;;;;;;7.53;2.75;;;;;;;11.14;63.08;99752.22;1663658;84;21105;-81
2021/10/22 09:56:41;;;;;;;11.50;6.30;;;;;;;11.23;63.13;99748.33;1663804;85;21070;-81
2021/10/22 09:59:10;;;;;;;14.63;6.30;;;;;;;11.35;63.00;99747.52;1663713;85;21023;-81
2021/10/22 10:01:39;;;;;;;9.45;4.12;;;;;;;11.41;62.89;99747.13;1663765;84;21580;-81
2021/10/22 10:04:14;;;;;;;8.63;5.33;;;;;;;11.48;62.83;99744.06;1663892;85;21710;-81
2021/10/22 10:06:41;;;;;;;8.95;3.45;;;;;;;11.53;62.81;99742.79;1663935;85;21055;-81
2021/10/22 10:09:09;;;;;;;9.40;2.17;;;;;;;11.57;62.45;99741.48;1665443;84;21078;-81
2021/10/22 10:11:41;;;;;;;7.62;2.40;;;;;;;11.62;62.47;99743.70;1666635;85;21111;-81
2021/10/22 10:14:12;;;;;;;5.33;1.85;;;;;;;11.69;62.31;99743.28;1666825;84;21074;-80
2021/10/22 10:16:38;;;;;;;6.80;2.02;;;;;;;11.76;62.25;99743.75;1666739;85;21886;-80
2021/10/22 10:19:09;;;;;;;10.25;2.33;;;;;;;11.84;62.29;99730.18;1666602;84;21372;-80
2021/10/22 10:21:44;;;;;;;6.05;1.92;;;;;;;11.95;62.20;99734.63;1666712;85;21058;-80
2021/10/22 10:24:11;;;;;;;10.90;2.72;;;;;;;12.04;61.95;99727.61;1666693;85;21529;-81
2021/10/22 10:26:38;;;;;;;6.40;2.22;;;;;;;12.10;61.78;99731.16;1666805;84;21497;-81
2021/10/22 10:29:08;;;;;;;9.38;2.20;;;;;;;12.16;61.63;99725.88;1666644;85;21747;-81
2021/10/22 10:31:39;;;;;;;8.48;2.60;;;;;;;12.14;61.24;99721.05;1666794;85;21078;-81
2021/10/22 10:34:39;;;;;;;8.18;2.90;;;;;;;12.06;60.96;99718.39;1666726;84;21153;-81
2021/10/22 10:37:31;;;;;;;6.30;2.30;;;;;;;11.96;60.88;99713.54;1666487;84;21023;-81
2021/10/22 10:40:32;;;;;;;10.85;2.35;;;;;;;11.86;61.01;99698.52;1666769;85;21109;-81
2021/10/22 10:43:19;;;;;;;7.00;2.33;;;;;;;11.77;60.95;99700.70;1666848;84;21759;-81
2021/10/22 10:45:46;;;;;;;11.08;2.85;;;;;;;11.72;60.83;99698.94;1656620;86;21124;-81
2021/10/22 10:48:19;;;;;;;14.63;3.17;;;;;;;11.65;60.85;99692.74;1621945;88;21148;-81
2021/10/22 10:51:12;;;;;;;12.70;2.70;;;;;;;11.61;60.80;99708.11;1632833;87;21192;-81
2021/10/22 10:53:38;;;;;;;9.95;2.77;;;;;;;11.52;60.69;99697.08;1651928;85;21086;-81
2021/10/22 10:56:22;;;;;;;9.68;2.83;;;;;;;11.43;60.60;99704.94;1622037;87;21927;-81
2021/10/22 10:58:49;;;;;;;11.57;2.55;;;;;;;11.42;60.71;99688.70;1628746;87;21656;-81
2021/10/22 11:01:25;;;;;;;9.45;2.85;;;;;;;11.34;60.54;99709.75;1657099;85;21117;-81
2021/10/22 11:03:52;;;;;;;10.10;2.40;;;;;;;11.29;60.57;99695.66;1619056;88;21131;-81
2021/10/22 11:06:52;;;;;;;13.38;2.35;;;;;;;11.28;60.74;99688.66;1632968;87;21121;-81
2021/10/22 11:09:43;;;;;;;8.80;2.52;;;;;;;11.29;60.65;99690.40;1656512;85;21860;-81
2021/10/22 11:12:08;;;;;;;11.48;2.90;;;;;;;11.36;60.78;99676.83;1656811;85;21018;-81
2021/10/22 11:14:43;;;;;;;9.23;2.33;;;;;;;11.50;60.70;99680.39;1657229;86;21065;-81
2021/10/22 11:17:10;;;;;;;9.10;2.72;;;;;;;11.57;60.42;99664.17;1657161;86;21093;-81
2021/10/22 11:19:40;;;;;;;12.73;2.75;;;;;;;11.50;60.33;99652.72;1657263;85;21134;-81
2021/10/22 11:22:18;;;;;;;11.65;2.70;;;;;;;11.52;60.25;99650.96;1669686;85;22004;-82
2021/10/22 11:24:43;;;;;;;14.55;3.00;;;;;;;11.55;60.29;99645.72;1675381;84;21022;-81
2021/10/22 11:27:14;;;;;;;12.07;2.65;;;;;;;11.59;60.30;99643.52;1676236;84;22180;-81
2021/10/22 11:29:48;;;;;;;12.85;2.72;;;;;;;11.65;60.14;99640.02;1676328;84;21073;-81
2021/10/22 11:32:27;;;;;;;10.00;2.75;;;;;;;11.66;60.10;99649.27;1676303;84;21112;-80
2021/10/22 11:35:01;;;;;;;9.80;2.87;;;;;;;11.66;59.87;99649.27;1676398;84;21782;-80
2021/10/22 11:37:35;;;;;;;7.92;2.85;;;;;;;11.67;59.89;99642.23;1676241;84;21572;-80
2021/10/22 11:40:04;;;;;;;16.35;4.05;;;;;;;11.66;59.87;99644.44;1676444;85;21073;-80
2021/10/22 11:42:35;;;;;;;10.80;2.47;;;;;;;11.65;60.00;99634.31;1676433;84;21133;-80
2021/10/22 11:45:14;;;;;;;18.92;3.30;;;;;;;11.63;59.93;99643.97;1676403;84;21311;-80
2021/10/22 11:47:47;;;;;;;8.83;3.20;;;;;;;11.55;59.95;99618.48;1675717;84;21766;-80
2021/10/22 11:50:34;;;;;;;10.65;2.92;;;;;;;11.44;59.82;99625.03;1676318;84;21101;-80
2021/10/22 11:53:04;;;;;;;18.20;3.80;;;;;;;11.35;60.13;99631.14;1676325;84;21173;-80